VH314 YSBK-YSSY
Flight info
| Callsign | VH314 |
|---|---|
| Flight time | 0h -2m |
| Altitude | 3000 |
| Route | JENTIL HALAS FISHA SSY DCT |
| Aircraft | PTS1/L-V/N |
Departure
| Time | 2026-05-08 01:23 |
|---|---|
| Airport | Sydney Bankstown Airport (YSBK) |
Arrival
| Time | 2026-05-08 01:21 |
|---|---|
| Airport | Sydney Kingsford Smith International Airport (YSSY) |
| Time | Latitude | Longitude | Altitude | Speed | Heading |
|---|---|---|---|---|---|
| 2026-05-08 01:21 | -33.92548 | 150.99620 | 38 ft | 0 kts | 304° |
| 2026-05-08 01:23 | -33.92542 | 150.99609 | 38 ft | 12 kts | 302° |
| 2026-05-08 01:23 | -33.92334 | 150.99314 | 232 ft | 70 kts | 307° |
| 2026-05-08 01:23 | -33.91806 | 150.99037 | 731 ft | 111 kts | 16° |
| 2026-05-08 01:23 | -33.91533 | 151.00035 | 978 ft | 137 kts | 85° |
| 2026-05-08 01:24 | -33.91516 | 151.01112 | 1550 ft | 130 kts | 88° |
| 2026-05-08 01:24 | -33.91148 | 151.02099 | 2031 ft | 136 kts | 58° |
| 2026-05-08 01:24 | -33.90639 | 151.03095 | 2450 ft | 142 kts | 57° |
| 2026-05-08 01:24 | -33.90077 | 151.04129 | 2715 ft | 153 kts | 57° |
| 2026-05-08 01:25 | -33.89504 | 151.05212 | 2983 ft | 154 kts | 60° |
| 2026-05-08 01:25 | -33.88971 | 151.06316 | 3317 ft | 153 kts | 63° |
| 2026-05-08 01:25 | -33.88414 | 151.07455 | 3454 ft | 162 kts | 64° |
| 2026-05-08 01:25 | -33.87835 | 151.08600 | 3551 ft | 166 kts | 63° |
| 2026-05-08 01:26 | -33.87245 | 151.09834 | 3321 ft | 166 kts | 64° |
| 2026-05-08 01:26 | -33.86691 | 151.11039 | 2894 ft | 165 kts | 64° |
| 2026-05-08 01:26 | -33.86185 | 151.12216 | 2727 ft | 156 kts | 66° |
| 2026-05-08 01:26 | -33.85784 | 151.13445 | 2413 ft | 157 kts | 75° |
| 2026-05-08 01:27 | -33.85529 | 151.14696 | 2258 ft | 154 kts | 66° |
| 2026-05-08 01:27 | -33.85062 | 151.15866 | 2183 ft | 154 kts | 64° |
| 2026-05-08 01:27 | -33.84749 | 151.17080 | 2069 ft | 155 kts | 75° |
| 2026-05-08 01:27 | -33.84602 | 151.18346 | 1939 ft | 150 kts | 92° |
| 2026-05-08 01:28 | -33.84671 | 151.19665 | 1337 ft | 164 kts | 99° |
| 2026-05-08 01:28 | -33.84930 | 151.20986 | 845 ft | 161 kts | 112° |
| 2026-05-08 01:28 | -33.85606 | 151.21803 | 842 ft | 126 kts | 168° |
| 2026-05-08 01:28 | -33.86271 | 151.22533 | 912 ft | 131 kts | 131° |
| 2026-05-08 01:29 | -33.86795 | 151.23430 | 1028 ft | 131 kts | 132° |
| 2026-05-08 01:29 | -33.87327 | 151.24285 | 1497 ft | 120 kts | 139° |
| 2026-05-08 01:29 | -33.87943 | 151.25009 | 1803 ft | 143 kts | 141° |
| 2026-05-08 01:29 | -33.88608 | 151.25905 | 2094 ft | 139 kts | 143° |
| 2026-05-08 01:30 | -33.89291 | 151.26731 | 2232 ft | 134 kts | 154° |
| 2026-05-08 01:30 | -33.89985 | 151.27371 | 2478 ft | 116 kts | 157° |
| 2026-05-08 01:30 | -33.90624 | 151.27915 | 2457 ft | 106 kts | 164° |
| 2026-05-08 01:30 | -33.91268 | 151.28260 | 2469 ft | 94 kts | 180° |
| 2026-05-08 01:31 | -33.91868 | 151.28131 | 2387 ft | 88 kts | 240° |
| 2026-05-08 01:31 | -33.91867 | 151.27338 | 1961 ft | 94 kts | 261° |
| 2026-05-08 01:31 | -33.91952 | 151.26525 | 1486 ft | 100 kts | 256° |
| 2026-05-08 01:31 | -33.92149 | 151.25755 | 1204 ft | 92 kts | 247° |
| 2026-05-08 01:32 | -33.92408 | 151.25137 | 1201 ft | 82 kts | 247° |
| 2026-05-08 01:32 | -33.92516 | 151.24451 | 1016 ft | 90 kts | 265° |
| 2026-05-08 01:32 | -33.92603 | 151.23677 | 804 ft | 93 kts | 251° |
| 2026-05-08 01:32 | -33.92816 | 151.22943 | 767 ft | 94 kts | 251° |
| 2026-05-08 01:33 | -33.92978 | 151.22194 | 714 ft | 92 kts | 254° |
| 2026-05-08 01:33 | -33.93157 | 151.21519 | 567 ft | 82 kts | 252° |
| 2026-05-08 01:33 | -33.93284 | 151.20862 | 495 ft | 80 kts | 251° |
| 2026-05-08 01:33 | -33.93476 | 151.20198 | 418 ft | 86 kts | 256° |
| 2026-05-08 01:34 | -33.93647 | 151.19499 | 268 ft | 88 kts | 256° |
| 2026-05-08 01:34 | -33.93806 | 151.18786 | 135 ft | 88 kts | 255° |
| 2026-05-08 01:34 | -33.93962 | 151.18125 | 35 ft | 72 kts | 256° |
| 2026-05-08 01:34 | -33.94081 | 151.17633 | 20 ft | 52 kts | 256° |
| 2026-05-08 01:35 | -33.94165 | 151.17268 | 17 ft | 38 kts | 257° |
| 2026-05-08 01:35 | -33.94218 | 151.17019 | 19 ft | 22 kts | 263° |
| 2026-05-08 01:35 | -33.94237 | 151.16931 | 19 ft | 8 kts | 255° |
| 2026-05-08 01:35 | -33.94187 | 151.16850 | 17 ft | 17 kts | 331° |
| 2026-05-08 01:36 | -33.94174 | 151.16764 | 17 ft | 8 kts | 266° |
| 2026-05-08 01:36 | -33.94179 | 151.16713 | 16 ft | 4 kts | 262° |
| 2026-05-08 01:36 | -33.94183 | 151.16688 | 17 ft | 1 kts | 255° |
| 2026-05-08 01:36 | -33.94183 | 151.16687 | 17 ft | 0 kts | 255° |
| 2026-05-08 01:38 | -33.94191 | 151.16742 | 16 ft | 21 kts | 64° |
| 2026-05-08 01:38 | -33.94130 | 151.16936 | 17 ft | 28 kts | 75° |
| 2026-05-08 01:38 | -33.94066 | 151.17164 | 16 ft | 29 kts | 65° |
| 2026-05-08 01:38 | -33.94050 | 151.17203 | 16 ft | 0 kts | 59° |
| 2026-05-08 01:39 | -33.94068 | 151.17179 | 16 ft | 12 kts | 241° |
| 2026-05-08 01:39 | -33.94096 | 151.17081 | 16 ft | 11 kts | 253° |
| 2026-05-08 01:40 | -33.94117 | 151.16997 | 16 ft | 9 kts | 254° |
| 2026-05-08 01:40 | -33.94134 | 151.16920 | 17 ft | 17 kts | 262° |
| 2026-05-08 01:40 | -33.94072 | 151.16818 | 16 ft | 19 kts | 30° |
| 2026-05-08 01:40 | -33.94040 | 151.16919 | 16 ft | 16 kts | 75° |
| 2026-05-08 01:41 | -33.94012 | 151.17048 | 15 ft | 0 kts | 76° |
| 2026-05-08 01:41 | -33.94006 | 151.17071 | 15 ft | 4 kts | 71° |
| 2026-05-08 01:43 | -33.93996 | 151.17110 | 14 ft | 13 kts | 75° |
| 2026-05-08 01:44 | -33.93983 | 151.17166 | 14 ft | 8 kts | 75° |
| 2026-05-08 01:44 | -33.93963 | 151.17267 | 13 ft | 11 kts | 74° |
| 2026-05-08 01:44 | -33.93957 | 151.17293 | 13 ft | 0 kts | 75° |
| 2026-05-08 01:44 | -33.93956 | 151.17296 | 13 ft | 0 kts | 73° |
| 2026-05-08 01:45 | -33.93956 | 151.17300 | 13 ft | 0 kts | 72° |
| 2026-05-08 01:45 | -33.93952 | 151.17314 | 13 ft | 9 kts | 72° |
| 2026-05-08 01:46 | -33.93934 | 151.17428 | 13 ft | 17 kts | 86° |
| 2026-05-08 01:46 | -33.93891 | 151.17581 | 14 ft | 21 kts | 70° |
| 2026-05-08 01:46 | -33.93849 | 151.17765 | 15 ft | 24 kts | 71° |
| 2026-05-08 01:46 | -33.93802 | 151.17955 | 23 ft | 23 kts | 72° |
| 2026-05-08 01:47 | -33.93751 | 151.18149 | 25 ft | 26 kts | 79° |
| 2026-05-08 01:47 | -33.93702 | 151.18369 | 25 ft | 29 kts | 70° |
| 2026-05-08 01:47 | -33.93648 | 151.18602 | 25 ft | 24 kts | 80° |
| 2026-05-08 01:48 | -33.93596 | 151.18879 | 25 ft | 17 kts | 104° |
| 2026-05-08 01:48 | -33.93620 | 151.18923 | 22 ft | 7 kts | 140° |
| 2026-05-08 01:48 | -33.93667 | 151.18952 | 19 ft | 0 kts | 163° |
| 2026-05-08 01:51 | -33.93736 | 151.18959 | 20 ft | 18 kts | 209° |
| 2026-05-08 01:51 | -33.93764 | 151.18877 | 21 ft | 13 kts | 239° |
| 2026-05-08 01:51 | -33.93829 | 151.18621 | 36 ft | 60 kts | 255° |
| 2026-05-08 01:52 | -33.93959 | 151.18088 | 338 ft | 70 kts | 253° |
| 2026-05-08 01:52 | -33.94095 | 151.17477 | 315 ft | 99 kts | 253° |
| 2026-05-08 01:52 | -33.94157 | 151.17222 | 866 ft | 14 kts | 285° |
| 2026-05-08 01:52 | -33.94135 | 151.16627 | 605 ft | 100 kts | 257° |
| 2026-05-08 01:53 | -33.94302 | 151.15834 | 929 ft | 97 kts | 257° |
| 2026-05-08 01:53 | -33.94456 | 151.14983 | 1092 ft | 105 kts | 256° |
| 2026-05-08 01:53 | -33.94582 | 151.14094 | 1054 ft | 108 kts | 261° |
| 2026-05-08 01:53 | -33.94675 | 151.13200 | 1104 ft | 111 kts | 262° |
| 2026-05-08 01:54 | -33.94709 | 151.12233 | 1211 ft | 118 kts | 264° |
| 2026-05-08 01:54 | -33.94669 | 151.11221 | 1173 ft | 123 kts | 272° |
| 2026-05-08 01:54 | -33.94579 | 151.10202 | 1157 ft | 123 kts | 274° |
| 2026-05-08 01:54 | -33.94518 | 151.09215 | 1138 ft | 105 kts | 258° |
| 2026-05-08 01:55 | -33.94597 | 151.08390 | 1123 ft | 100 kts | 271° |
| 2026-05-08 01:55 | -33.94320 | 151.07594 | 1326 ft | 110 kts | 285° |
| 2026-05-08 01:55 | -33.94057 | 151.06703 | 1508 ft | 110 kts | 281° |
| 2026-05-08 01:55 | -33.93813 | 151.05797 | 1653 ft | 117 kts | 288° |
| 2026-05-08 01:56 | -33.93559 | 151.04864 | 1568 ft | 126 kts | 278° |
| 2026-05-08 01:56 | -33.93261 | 151.03869 | 1531 ft | 124 kts | 285° |
| 2026-05-08 01:56 | -33.93052 | 151.02921 | 1833 ft | 106 kts | 267° |
| 2026-05-08 01:56 | -33.92889 | 151.02030 | 2035 ft | 117 kts | 285° |
| 2026-05-08 01:57 | -33.92595 | 151.01111 | 2204 ft | 116 kts | 281° |
| 2026-05-08 01:57 | -33.92397 | 151.00231 | 2560 ft | 112 kts | 275° |
| 2026-05-08 01:57 | -33.92251 | 150.99292 | 2723 ft | 112 kts | 273° |
| 2026-05-08 01:57 | -33.92175 | 150.98352 | 2892 ft | 111 kts | 267° |
| 2026-05-08 01:58 | -33.92162 | 150.97474 | 3274 ft | 108 kts | 268° |
| 2026-05-08 01:58 | -33.92076 | 150.96869 | 3349 ft | 112 kts | 270° |
| 2026-05-08 01:58 | -33.91984 | 150.95939 | 3488 ft | 118 kts | 277° |
| 2026-05-08 01:58 | -33.91603 | 150.94713 | 3811 ft | 116 kts | 276° |
| 2026-05-08 01:59 | -33.91419 | 150.94070 | 3749 ft | 126 kts | 277° |
| 2026-05-08 01:59 | -33.91249 | 150.93094 | 4004 ft | 106 kts | 262° |
| 2026-05-08 01:59 | -33.91104 | 150.92153 | 3981 ft | 127 kts | 279° |
| 2026-05-08 01:59 | -33.90804 | 150.91169 | 3813 ft | 125 kts | 277° |
| 2026-05-08 02:00 | -33.90565 | 150.90183 | 3508 ft | 122 kts | 274° |
| 2026-05-08 02:00 | -33.90359 | 150.89256 | 3347 ft | 103 kts | 274° |
| 2026-05-08 02:00 | -33.90134 | 150.88450 | 3227 ft | 105 kts | 274° |
| 2026-05-08 02:00 | -33.89904 | 150.87605 | 3118 ft | 108 kts | 277° |
| 2026-05-08 02:01 | -33.89765 | 150.86690 | 2861 ft | 112 kts | 266° |
| 2026-05-08 02:01 | -33.89749 | 150.85777 | 2825 ft | 106 kts | 262° |
| 2026-05-08 02:01 | -33.89597 | 150.84874 | 2722 ft | 119 kts | 285° |
| 2026-05-08 02:01 | -33.89283 | 150.83996 | 2687 ft | 114 kts | 284° |
| 2026-05-08 02:02 | -33.88910 | 150.83141 | 2613 ft | 116 kts | 290° |
| 2026-05-08 02:02 | -33.88594 | 150.82260 | 2545 ft | 112 kts | 276° |
| 2026-05-08 02:02 | -33.88436 | 150.81342 | 2472 ft | 118 kts | 282° |
| 2026-05-08 02:02 | -33.88145 | 150.80416 | 2348 ft | 120 kts | 280° |
| 2026-05-08 02:03 | -33.87716 | 150.79541 | 2240 ft | 124 kts | 297° |
| 2026-05-08 02:03 | -33.87176 | 150.78757 | 2074 ft | 119 kts | 299° |
| 2026-05-08 02:03 | -33.86615 | 150.78020 | 1607 ft | 130 kts | 316° |
| 2026-05-08 02:03 | -33.86003 | 150.77272 | 1267 ft | 119 kts | 292° |
| 2026-05-08 02:04 | -33.85995 | 150.76416 | 1007 ft | 98 kts | 246° |
| 2026-05-08 02:04 | -33.86248 | 150.75666 | 828 ft | 97 kts | 245° |
| 2026-05-08 02:04 | -33.86561 | 150.74948 | 692 ft | 102 kts | 240° |
| 2026-05-08 02:04 | -33.86917 | 150.74220 | 531 ft | 100 kts | 240° |
| 2026-05-08 02:05 | -33.87281 | 150.73462 | 371 ft | 103 kts | 240° |
| 2026-05-08 02:05 | -33.87632 | 150.72753 | 295 ft | 95 kts | 239° |
| 2026-05-08 02:05 | -33.87951 | 150.72113 | 285 ft | 83 kts | 236° |
| 2026-05-08 02:05 | -33.88215 | 150.71569 | 274 ft | 66 kts | 237° |
| 2026-05-08 02:06 | -33.88427 | 150.71148 | 274 ft | 52 kts | 238° |
| 2026-05-08 02:06 | -33.88598 | 150.70824 | 272 ft | 40 kts | 247° |
| 2026-05-08 02:06 | -33.88689 | 150.70583 | 276 ft | 22 kts | 243° |
| 2026-05-08 02:06 | -33.88743 | 150.70490 | 275 ft | 9 kts | 240° |
| 2026-05-08 02:07 | -33.88774 | 150.70428 | 275 ft | 8 kts | 238° |
| 2026-05-08 02:07 | -33.88802 | 150.70371 | 275 ft | 11 kts | 242° |
| 2026-05-08 02:07 | -33.88866 | 150.70239 | 274 ft | 21 kts | 239° |
| 2026-05-08 02:07 | -33.88931 | 150.70131 | 273 ft | 13 kts | 214° |
| 2026-05-08 02:08 | -33.89006 | 150.70139 | 273 ft | 5 kts | 144° |
| 2026-05-08 02:08 | -33.89048 | 150.70173 | 273 ft | 0 kts | 138° |
| 2026-05-08 02:08 | -33.89068 | 150.70207 | 273 ft | 19 kts | 87° |
| 2026-05-08 02:08 | -33.88993 | 150.70362 | 273 ft | 33 kts | 58° |
| 2026-05-08 02:09 | -33.88872 | 150.70618 | 273 ft | 24 kts | 54° |
| 2026-05-08 02:09 | -33.88789 | 150.70808 | 268 ft | 27 kts | 56° |
| 2026-05-08 02:09 | -33.88693 | 150.71009 | 268 ft | 28 kts | 62° |
| 2026-05-08 02:09 | -33.88583 | 150.71200 | 268 ft | 28 kts | 57° |
| 2026-05-08 02:10 | -33.88524 | 150.71355 | 268 ft | 11 kts | 57° |
| 2026-05-08 02:10 | -33.88520 | 150.71442 | 269 ft | 14 kts | 150° |
| 2026-05-08 02:10 | -33.88607 | 150.71492 | 269 ft | 14 kts | 148° |
| 2026-05-08 02:10 | -33.88600 | 150.71597 | 269 ft | 17 kts | 59° |
| 2026-05-08 02:11 | -33.88536 | 150.71733 | 269 ft | 20 kts | 72° |
| 2026-05-08 02:11 | -33.88473 | 150.71897 | 268 ft | 23 kts | 63° |
| 2026-05-08 02:11 | -33.88375 | 150.72056 | 268 ft | 24 kts | 57° |
| 2026-05-08 02:11 | -33.88322 | 150.72193 | 268 ft | 8 kts | 69° |
| 2026-05-08 02:12 | -33.88301 | 150.72241 | 268 ft | 1 kts | 60° |
| 2026-05-08 02:12 | -33.88274 | 150.72295 | 269 ft | 12 kts | 58° |
| 2026-05-08 02:12 | -33.88251 | 150.72335 | 269 ft | 0 kts | 46° |
| 2026-05-08 02:16 | -33.88250 | 150.72335 | 269 ft | 1 kts | 46° |
| 2026-05-08 02:16 | -33.88212 | 150.72380 | 268 ft | 12 kts | 42° |
| 2026-05-08 02:16 | -33.88181 | 150.72412 | 272 ft | 8 kts | 40° |
| 2026-05-08 02:16 | -33.88170 | 150.72423 | 272 ft | 0 kts | 38° |
| 2026-05-08 02:19 | -33.88165 | 150.72438 | 269 ft | 10 kts | 98° |
| 2026-05-08 02:19 | -33.88187 | 150.72447 | 269 ft | 0 kts | 235° |